createdAt,value
2019-01-17T00:00:50.230Z,45.06
2019-01-17T00:03:31.471Z,44.98
2019-01-17T00:06:16.912Z,45.20
2019-01-17T00:08:55.030Z,45.23
2019-01-17T00:11:40.342Z,45.33
2019-01-17T00:14:22.691Z,45.25
2019-01-17T00:17:08.279Z,45.13
2019-01-17T00:19:54.003Z,45.15
2019-01-17T00:22:39.759Z,45.29
2019-01-17T00:25:27.231Z,45.15
2019-01-17T00:28:06.610Z,45.31
2019-01-17T00:30:52.054Z,45.48
2019-01-17T00:33:46.852Z,45.24
2019-01-17T00:36:36.862Z,45.39
2019-01-17T00:39:25.686Z,45.39
2019-01-17T00:42:10.749Z,45.05
2019-01-17T00:44:50.090Z,45.19
2019-01-17T00:47:52.106Z,45.11
2019-01-17T00:50:38.946Z,44.97
2019-01-17T00:53:23.499Z,45.07
2019-01-17T00:56:09.507Z,45.15
2019-01-17T00:58:53.958Z,45.17
2019-01-17T01:01:32.519Z,45.29
2019-01-17T01:04:22.667Z,45.39
2019-01-17T01:07:28.056Z,45.09
2019-01-17T01:10:15.422Z,45.00
2019-01-17T01:12:57.231Z,45.18
2019-01-17T01:15:46.937Z,45.24
2019-01-17T01:18:24.392Z,45.09
2019-01-17T01:21:10.265Z,44.99
2019-01-17T01:23:47.807Z,45.28
2019-01-17T01:26:40.375Z,45.25
2019-01-17T01:29:27.200Z,45.15
2019-01-17T01:32:03.594Z,45.20
2019-01-17T01:34:45.132Z,45.22
2019-01-17T01:37:31.124Z,45.40
2019-01-17T01:40:21.054Z,44.89
2019-01-17T01:43:07.085Z,45.13
2019-01-17T01:45:53.971Z,45.20
2019-01-17T01:48:43.638Z,45.21
2019-01-17T01:51:29.337Z,45.00
2019-01-17T01:53:57.352Z,45.11
2019-01-17T01:56:25.088Z,45.35
2019-01-17T01:58:53.347Z,45.15
2019-01-17T02:01:21.082Z,45.27
2019-01-17T02:03:49.035Z,45.33
2019-01-17T02:06:16.774Z,45.27
2019-01-17T02:08:45.007Z,44.87
2019-01-17T02:11:13.247Z,45.08
2019-01-17T02:13:41.023Z,44.78
2019-01-17T02:16:08.735Z,44.77
2019-01-17T02:18:36.447Z,44.97
2019-01-17T02:21:04.179Z,45.03
2019-01-17T02:23:32.127Z,44.99
2019-01-17T02:25:59.861Z,45.07
2019-01-17T02:28:27.862Z,45.07
2019-01-17T02:30:55.815Z,45.22
2019-01-17T02:33:23.564Z,45.11
2019-01-17T02:35:51.335Z,44.78
2019-01-17T02:38:19.319Z,44.92
2019-01-17T02:40:47.503Z,45.06
2019-01-17T02:43:15.487Z,45.27
2019-01-17T02:45:43.666Z,45.05
2019-01-17T02:48:11.978Z,45.03
2019-01-17T02:50:39.963Z,45.24
2019-01-17T02:53:07.921Z,44.88
2019-01-17T02:55:36.116Z,45.31
2019-01-17T02:58:03.835Z,45.30
2019-01-17T03:00:31.602Z,44.93
2019-01-17T03:02:59.583Z,44.92
2019-01-17T03:05:27.590Z,44.97
2019-01-17T03:07:55.565Z,45.20
2019-01-17T03:10:23.594Z,45.19
2019-01-17T03:12:51.302Z,45.12
2019-01-17T03:15:19.512Z,45.19
2019-01-17T03:17:47.774Z,45.16
2019-01-17T03:20:15.741Z,45.22
2019-01-17T03:22:43.531Z,45.18
2019-01-17T03:25:11.304Z,45.22
2019-01-17T03:27:39.274Z,45.09
2019-01-17T03:30:09.284Z,45.29
2019-01-17T03:32:37.240Z,45.14
2019-01-17T03:35:06.215Z,45.12
2019-01-17T03:37:34.298Z,45.23
2019-01-17T03:40:02.674Z,45.27
2019-01-17T03:42:31.328Z,45.22
2019-01-17T03:44:59.162Z,45.22
2019-01-17T03:47:27.120Z,45.08
2019-01-17T03:49:55.107Z,44.99
2019-01-17T03:52:23.316Z,44.92
2019-01-17T03:54:53.909Z,45.15
2019-01-17T03:57:21.228Z,45.00
2019-01-17T03:59:49.434Z,44.93
2019-01-17T04:02:17.406Z,45.25
2019-01-17T04:04:45.407Z,45.07
2019-01-17T04:07:13.649Z,45.20
2019-01-17T04:09:41.390Z,45.19
2019-01-17T04:12:09.751Z,45.13
2019-01-17T04:14:37.477Z,44.99
2019-01-17T04:17:05.428Z,45.02
2019-01-17T04:19:33.795Z,44.87
2019-01-17T04:22:01.535Z,44.94
2019-01-17T04:24:29.748Z,44.98
2019-01-17T04:26:58.221Z,45.06
2019-01-17T04:29:26.214Z,44.97
2019-01-17T04:31:54.945Z,44.83
2019-01-17T04:34:22.699Z,44.85
2019-01-17T04:36:50.764Z,44.85
2019-01-17T04:39:19.065Z,45.16
2019-01-17T04:41:46.775Z,45.16
2019-01-17T04:44:14.796Z,45.10
2019-01-17T04:46:42.510Z,44.94
2019-01-17T04:49:10.574Z,44.98
2019-01-17T04:51:38.359Z,45.03
2019-01-17T04:54:06.686Z,45.02
2019-01-17T04:56:34.750Z,44.90
2019-01-17T04:59:02.718Z,45.02
2019-01-17T05:01:30.715Z,45.03
2019-01-17T05:03:58.468Z,45.07
2019-01-17T05:06:26.761Z,45.17
2019-01-17T05:08:54.472Z,45.02
2019-01-17T05:11:22.405Z,45.17
2019-01-17T05:13:50.108Z,45.12
2019-01-17T05:16:17.819Z,45.10
2019-01-17T05:18:46.298Z,45.06
2019-01-17T05:21:14.016Z,44.88
2019-01-17T05:23:42.227Z,44.87
2019-01-17T05:26:09.947Z,45.11
2019-01-17T05:28:37.895Z,45.01
2019-01-17T05:31:05.607Z,44.73
2019-01-17T05:33:33.679Z,44.50
2019-01-17T05:36:01.389Z,44.04
2019-01-17T05:38:29.156Z,43.79
2019-01-17T05:40:56.891Z,43.37
2019-01-17T05:43:25.161Z,42.96
2019-01-17T05:45:53.446Z,42.79
2019-01-17T05:48:21.166Z,42.92
2019-01-17T05:50:49.569Z,42.54
2019-01-17T05:53:17.872Z,42.35
2019-01-17T05:55:46.082Z,42.05
2019-01-17T05:58:13.903Z,42.53
2019-01-17T06:00:41.871Z,41.58
2019-01-17T06:03:11.184Z,41.65
2019-01-17T06:05:39.878Z,42.02
2019-01-17T06:08:07.643Z,42.11
2019-01-17T06:10:35.591Z,41.81
2019-01-17T06:13:04.623Z,42.22
2019-01-17T06:15:32.916Z,42.06
2019-01-17T06:18:00.682Z,42.18
2019-01-17T06:20:28.723Z,42.03
2019-01-17T06:22:56.802Z,42.08
2019-01-17T06:25:28.154Z,41.79
2019-01-17T06:27:54.267Z,41.30
2019-01-17T06:30:22.243Z,41.28
2019-01-17T06:32:50.214Z,41.35
2019-01-17T06:35:18.407Z,41.45
2019-01-17T06:37:46.667Z,41.59
2019-01-17T06:40:16.347Z,41.66
2019-01-17T06:42:44.726Z,42.82
2019-01-17T06:45:13.319Z,42.70
2019-01-17T06:47:41.585Z,42.99
2019-01-17T06:50:09.536Z,43.02
2019-01-17T06:52:37.251Z,43.23
2019-01-17T06:55:05.038Z,43.68
2019-01-17T06:57:33.098Z,43.60
2019-01-17T07:00:01.152Z,43.68
2019-01-17T07:02:29.243Z,43.77
2019-01-17T07:04:57.300Z,43.87
2019-01-17T07:07:25.554Z,43.94
2019-01-17T07:09:53.294Z,44.02
2019-01-17T07:12:21.388Z,44.05
2019-01-17T07:14:49.391Z,44.08
2019-01-17T07:17:17.131Z,44.10
2019-01-17T07:19:44.834Z,44.11
2019-01-17T07:22:12.920Z,44.10
2019-01-17T07:24:40.924Z,44.12
2019-01-17T07:27:09.131Z,44.13
2019-01-17T07:29:37.174Z,44.18
2019-01-17T07:32:05.343Z,44.20
2019-01-17T07:34:33.650Z,44.18
2019-01-17T07:37:01.916Z,44.21
2019-01-17T07:39:29.643Z,44.22
2019-01-17T07:41:57.678Z,44.17
2019-01-17T07:44:25.654Z,44.19
2019-01-17T07:46:53.707Z,44.25
2019-01-17T07:49:21.422Z,44.25
2019-01-17T07:51:49.719Z,44.25
2019-01-17T07:54:17.750Z,44.27
2019-01-17T07:56:45.742Z,44.26
2019-01-17T07:59:13.716Z,44.25
2019-01-17T08:01:41.662Z,44.25
2019-01-17T08:04:09.382Z,44.22
2019-01-17T08:06:37.367Z,44.23
2019-01-17T08:09:07.635Z,44.26
2019-01-17T08:11:35.832Z,44.24
2019-01-17T08:14:03.546Z,44.26
2019-01-17T08:16:32.033Z,44.25
2019-01-17T08:18:59.770Z,44.27
2019-01-17T08:21:27.725Z,44.30
2019-01-17T08:23:56.016Z,44.28
2019-01-17T08:26:24.187Z,44.31
2019-01-17T08:28:52.143Z,44.33
2019-01-17T08:31:20.383Z,44.31
2019-01-17T08:33:48.331Z,44.32
2019-01-17T08:36:16.287Z,44.27
2019-01-17T08:38:43.995Z,44.24
2019-01-17T08:41:11.944Z,44.27
2019-01-17T08:43:40.139Z,44.36
2019-01-17T08:46:08.415Z,44.40
2019-01-17T08:48:36.131Z,44.45
2019-01-17T08:51:03.863Z,44.33
2019-01-17T08:53:31.921Z,44.36
2019-01-17T08:56:00.892Z,44.30
2019-01-17T08:58:28.844Z,44.34
2019-01-17T09:00:56.791Z,44.34
2019-01-17T09:03:24.760Z,44.32
2019-01-17T09:05:52.722Z,44.28
2019-01-17T09:08:20.691Z,44.30
2019-01-17T09:10:48.759Z,44.34
2019-01-17T09:13:16.478Z,44.38
2019-01-17T09:15:44.207Z,44.35
2019-01-17T09:18:12.176Z,44.38
2019-01-17T09:20:40.139Z,44.38
2019-01-17T09:23:08.107Z,44.42
2019-01-17T09:25:36.062Z,44.37
2019-01-17T09:28:04.155Z,44.31
2019-01-17T09:30:32.571Z,44.42
2019-01-17T09:33:00.770Z,44.33
2019-01-17T09:35:28.491Z,44.45
2019-01-17T09:37:56.431Z,44.38
2019-01-17T09:40:24.375Z,44.43
2019-01-17T09:42:52.575Z,44.43
2019-01-17T09:45:20.771Z,44.43
2019-01-17T09:47:48.983Z,44.47
2019-01-17T09:50:17.617Z,44.43
2019-01-17T09:52:45.356Z,44.42
2019-01-17T09:55:13.062Z,44.38
2019-01-17T09:57:41.526Z,44.41
2019-01-17T10:00:11.579Z,44.38
2019-01-17T10:02:39.278Z,44.40
2019-01-17T10:05:07.283Z,44.32
2019-01-17T10:07:35.235Z,44.41
2019-01-17T10:10:03.367Z,44.42
2019-01-17T10:12:31.571Z,44.37
2019-01-17T10:14:59.789Z,44.43
2019-01-17T10:17:46.089Z,44.38
2019-01-17T10:20:29.187Z,44.20
2019-01-17T10:23:08.522Z,44.39
2019-01-17T10:25:45.414Z,44.45
2019-01-17T10:28:30.547Z,44.47
2019-01-17T10:31:32.908Z,44.40
2019-01-17T10:34:05.198Z,44.49
2019-01-17T10:36:51.443Z,44.38
2019-01-17T10:39:27.273Z,44.33
2019-01-17T10:41:59.470Z,44.34
2019-01-17T10:44:44.970Z,44.41
2019-01-17T10:47:30.967Z,44.44
2019-01-17T10:50:32.999Z,44.38
2019-01-17T10:53:14.377Z,44.35
2019-01-17T10:56:01.690Z,44.37
2019-01-17T10:58:38.662Z,44.32
2019-01-17T11:01:24.624Z,44.47
2019-01-17T11:04:09.428Z,44.22
2019-01-17T11:06:42.319Z,44.32
2019-01-17T11:09:38.552Z,44.41
2019-01-17T11:12:11.128Z,44.34
2019-01-17T11:14:50.760Z,44.43
2019-01-17T11:17:44.156Z,44.50
2019-01-17T11:20:23.159Z,44.50
2019-01-17T11:23:09.151Z,44.48
2019-01-17T11:25:58.370Z,44.48
2019-01-17T11:28:35.350Z,44.44
2019-01-17T11:31:16.695Z,44.45
2019-01-17T11:34:04.538Z,44.51
2019-01-17T11:36:44.982Z,44.54
2019-01-17T11:39:21.567Z,44.56
2019-01-17T11:41:56.751Z,44.56
2019-01-17T11:44:36.271Z,44.61
2019-01-17T11:47:11.699Z,44.60
2019-01-17T11:49:59.022Z,44.65
2019-01-17T11:52:41.582Z,44.65
2019-01-17T11:55:21.868Z,44.70
2019-01-17T11:58:08.493Z,44.66
2019-01-17T12:00:55.525Z,44.71
2019-01-17T12:03:45.985Z,44.71
2019-01-17T12:06:13.706Z,44.71
2019-01-17T12:08:41.424Z,44.73
2019-01-17T12:11:09.148Z,44.83
2019-01-17T12:13:37.427Z,44.81
2019-01-17T12:16:05.450Z,44.82
2019-01-17T12:18:33.720Z,44.87
2019-01-17T12:21:01.715Z,44.85
2019-01-17T12:23:29.512Z,44.86
2019-01-17T12:25:57.216Z,44.86
2019-01-17T12:28:25.411Z,44.88
2019-01-17T12:30:53.363Z,44.89
2019-01-17T12:33:21.106Z,44.84
2019-01-17T12:35:49.115Z,44.88
2019-01-17T12:38:17.486Z,44.89
2019-01-17T12:40:45.279Z,44.86
2019-01-17T12:43:13.334Z,44.86
2019-01-17T12:45:41.067Z,44.88
2019-01-17T12:48:08.803Z,44.87
2019-01-17T12:50:36.843Z,44.86
2019-01-17T12:53:04.922Z,44.88
2019-01-17T12:55:32.987Z,44.93
2019-01-17T12:58:01.036Z,44.88
2019-01-17T13:00:29.102Z,44.89
2019-01-17T13:02:57.301Z,44.92
2019-01-17T13:05:25.555Z,44.94
2019-01-17T13:07:53.524Z,44.91
2019-01-17T13:10:21.486Z,44.89
2019-01-17T13:12:50.075Z,44.91
2019-01-17T13:15:18.023Z,44.95
2019-01-17T13:17:45.754Z,44.96
2019-01-17T13:20:14.662Z,44.98
2019-01-17T13:22:42.409Z,44.99
2019-01-17T13:25:11.484Z,45.01
2019-01-17T13:27:39.466Z,44.97
2019-01-17T13:30:10.506Z,45.00
2019-01-17T13:32:38.747Z,44.99
2019-01-17T13:35:06.471Z,45.04
2019-01-17T13:37:34.846Z,44.98
2019-01-17T13:40:02.646Z,45.04
2019-01-17T13:42:30.938Z,45.00
2019-01-17T13:44:58.644Z,44.97
2019-01-17T13:47:26.362Z,45.02
2019-01-17T13:49:54.078Z,45.00
2019-01-17T13:52:22.110Z,45.03
2019-01-17T13:54:50.070Z,45.00
2019-01-17T13:57:17.853Z,45.03
2019-01-17T13:59:46.075Z,44.94
2019-01-17T14:02:14.286Z,44.99
2019-01-17T14:04:42.466Z,44.96
2019-01-17T14:07:10.743Z,45.01
2019-01-17T14:09:38.744Z,45.04
2019-01-17T14:12:06.957Z,44.99
2019-01-17T14:14:35.114Z,45.00
2019-01-17T14:17:03.160Z,45.03
2019-01-17T14:19:31.232Z,45.00
2019-01-17T14:21:59.207Z,44.96
2019-01-17T14:24:26.930Z,44.95
2019-01-17T14:26:55.216Z,44.95
2019-01-17T14:29:23.491Z,44.93
2019-01-17T14:31:51.214Z,44.88
2019-01-17T14:34:19.159Z,44.90
2019-01-17T14:36:47.182Z,44.88
2019-01-17T14:39:15.130Z,44.85
2019-01-17T14:41:43.399Z,44.83
2019-01-17T14:44:11.098Z,44.84
2019-01-17T14:46:39.038Z,44.81
2019-01-17T14:49:06.990Z,44.83
2019-01-17T14:51:35.178Z,44.83
2019-01-17T14:54:03.359Z,44.84
2019-01-17T14:56:31.607Z,44.78
2019-01-17T14:58:59.347Z,44.80
2019-01-17T15:01:27.174Z,44.85
2019-01-17T15:03:55.390Z,44.80
2019-01-17T15:06:23.759Z,44.86
2019-01-17T15:08:51.958Z,44.85
2019-01-17T15:11:20.130Z,44.84
2019-01-17T15:13:48.147Z,44.78
2019-01-17T15:16:16.363Z,44.73
2019-01-17T15:18:44.372Z,44.76
2019-01-17T15:21:12.078Z,44.83
2019-01-17T15:23:39.947Z,44.84
2019-01-17T15:26:07.863Z,44.84
2019-01-17T15:28:36.214Z,44.84
2019-01-17T15:31:03.924Z,44.84
2019-01-17T15:33:31.975Z,44.89
2019-01-17T15:35:59.730Z,44.88
2019-01-17T15:38:27.999Z,44.84
2019-01-17T15:40:55.960Z,44.88
2019-01-17T15:43:23.919Z,44.87
2019-01-17T15:45:52.472Z,44.61
2019-01-17T15:48:20.794Z,44.68
2019-01-17T15:50:48.584Z,44.84
2019-01-17T15:53:16.366Z,44.90
2019-01-17T15:55:44.663Z,44.88
2019-01-17T15:58:12.410Z,44.86
2019-01-17T16:00:40.365Z,44.88
2019-01-17T16:03:08.108Z,44.87
2019-01-17T16:05:36.394Z,44.87
2019-01-17T16:08:04.355Z,44.79
2019-01-17T16:10:32.074Z,44.89
2019-01-17T16:13:00.403Z,44.87
2019-01-17T16:15:28.511Z,44.91
2019-01-17T16:17:56.860Z,44.91
2019-01-17T16:20:24.666Z,44.87
2019-01-17T16:22:52.902Z,44.87
2019-01-17T16:25:21.144Z,44.85
2019-01-17T16:27:53.011Z,44.81
2019-01-17T16:30:21.607Z,44.81
2019-01-17T16:32:49.566Z,44.82
2019-01-17T16:35:17.768Z,44.80
2019-01-17T16:37:45.965Z,44.79
2019-01-17T16:40:14.150Z,44.81
2019-01-17T16:42:42.271Z,44.70
2019-01-17T16:45:10.772Z,44.76
2019-01-17T16:47:38.749Z,44.80
2019-01-17T16:50:09.346Z,44.78
2019-01-17T16:52:37.198Z,44.82
2019-01-17T16:55:05.507Z,44.75
2019-01-17T16:57:33.200Z,44.84
2019-01-17T17:00:01.645Z,44.82
2019-01-17T17:02:29.354Z,44.84
2019-01-17T17:04:57.383Z,44.84
2019-01-17T17:07:25.840Z,44.83
2019-01-17T17:09:54.440Z,44.84
2019-01-17T17:12:22.671Z,44.82
2019-01-17T17:14:50.640Z,44.82
2019-01-17T17:17:18.640Z,44.85
2019-01-17T17:19:46.768Z,44.83
2019-01-17T17:22:15.011Z,44.31
2019-01-17T17:31:02.305Z,44.54
2019-01-17T17:33:30.357Z,44.52
2019-01-17T17:35:58.416Z,44.46
2019-01-17T17:38:26.518Z,44.51
2019-01-17T17:40:54.566Z,44.52
2019-01-17T17:43:22.597Z,44.58
2019-01-17T17:45:50.389Z,44.55
2019-01-17T17:48:18.803Z,44.48
2019-01-17T17:50:46.528Z,44.58
2019-01-17T17:53:14.618Z,44.59
2019-01-17T17:55:44.318Z,44.62
2019-01-17T17:58:12.874Z,44.58
2019-01-17T18:00:45.620Z,44.59
2019-01-17T18:03:13.574Z,44.59
2019-01-17T18:05:41.318Z,44.56
2019-01-17T18:08:09.023Z,44.58
2019-01-17T18:10:37.320Z,44.51
2019-01-17T18:13:09.604Z,44.48
2019-01-17T18:15:37.652Z,44.46
2019-01-17T18:18:05.891Z,44.44
2019-01-17T18:20:34.558Z,44.45
2019-01-17T18:23:03.282Z,44.41
2019-01-17T18:25:31.339Z,44.36
2019-01-17T18:28:00.235Z,44.40
2019-01-17T18:30:28.394Z,44.25
2019-01-17T18:32:56.671Z,44.16
2019-01-17T18:35:25.436Z,44.37
2019-01-17T18:37:53.460Z,44.36
2019-01-17T18:40:21.782Z,44.38
2019-01-17T18:42:50.042Z,44.34
2019-01-17T18:45:18.599Z,44.37
2019-01-17T18:47:46.343Z,44.36
2019-01-17T18:50:15.759Z,44.42
2019-01-17T18:52:43.922Z,44.42
2019-01-17T18:55:11.739Z,44.36
2019-01-17T18:57:39.759Z,44.26
2019-01-17T19:00:13.456Z,44.27
2019-01-17T19:02:41.790Z,44.28
2019-01-17T19:05:09.510Z,44.28
2019-01-17T19:07:37.255Z,44.16
2019-01-17T19:10:06.110Z,44.21
2019-01-17T19:12:34.306Z,44.30
2019-01-17T19:15:02.787Z,44.31
2019-01-17T19:17:31.080Z,44.32
2019-01-17T19:19:59.757Z,44.32
2019-01-17T19:22:27.938Z,44.26
2019-01-17T19:24:56.143Z,44.33
2019-01-17T19:27:24.510Z,44.40
2019-01-17T19:29:53.091Z,44.44
2019-01-17T19:32:21.450Z,44.46
2019-01-17T19:34:49.451Z,44.41
2019-01-17T19:37:17.473Z,44.39
2019-01-17T19:39:45.194Z,44.47
2019-01-17T19:42:12.918Z,44.44
2019-01-17T19:44:41.191Z,44.41
2019-01-17T19:47:08.918Z,44.35
2019-01-17T19:49:37.355Z,44.30
2019-01-17T19:55:45.228Z,44.28
2019-01-17T19:58:13.394Z,44.25
2019-01-17T20:00:41.436Z,44.27
2019-01-17T20:03:09.487Z,44.25
2019-01-17T20:05:37.403Z,44.21
2019-01-17T20:08:05.153Z,44.24
2019-01-17T20:10:34.250Z,44.24
2019-01-17T20:13:01.959Z,44.24
2019-01-17T20:15:29.931Z,44.21
2019-01-17T20:17:59.135Z,44.24
2019-01-17T20:20:31.821Z,44.26
2019-01-17T20:22:57.886Z,44.26
2019-01-17T20:25:25.914Z,44.26
2019-01-17T20:27:53.688Z,44.26
2019-01-17T20:30:22.479Z,44.26
2019-01-17T20:32:50.950Z,44.24
2019-01-17T20:35:20.238Z,44.20
2019-01-17T20:37:48.670Z,44.17
2019-01-17T20:40:17.655Z,44.22
2019-01-17T20:42:48.392Z,44.15
2019-01-17T20:45:16.720Z,44.14
2019-01-17T20:47:44.550Z,44.10
2019-01-17T20:50:13.747Z,44.10
2019-01-17T20:52:41.706Z,44.09
2019-01-17T20:55:09.913Z,44.10
2019-01-17T20:57:38.281Z,44.10
2019-01-17T21:00:10.135Z,44.09
2019-01-17T21:02:37.851Z,44.08
2019-01-17T21:05:06.459Z,44.10
2019-01-17T21:07:34.408Z,44.08
2019-01-17T21:10:02.448Z,44.11
2019-01-17T21:12:30.398Z,44.13
2019-01-17T21:14:58.130Z,44.13
2019-01-17T21:17:26.415Z,44.13
2019-01-17T21:19:54.637Z,44.17
2019-01-17T21:22:22.413Z,44.17
2019-01-17T21:24:50.431Z,44.21
2019-01-17T21:27:18.718Z,44.22
2019-01-17T21:29:46.455Z,44.22
2019-01-17T21:32:14.224Z,44.14
2019-01-17T21:34:42.203Z,44.22
2019-01-17T21:37:09.930Z,44.21
2019-01-17T21:39:37.886Z,44.21
2019-01-17T21:42:06.246Z,44.20
2019-01-17T21:44:33.966Z,44.27
2019-01-17T21:47:01.698Z,44.25
2019-01-17T21:49:29.914Z,44.22
2019-01-17T21:51:57.887Z,44.28
2019-01-17T21:54:25.628Z,44.28
2019-01-17T21:56:53.703Z,44.29
2019-01-17T21:59:21.699Z,44.26
2019-01-17T22:01:49.484Z,44.24
2019-01-17T22:04:17.713Z,44.15
2019-01-17T22:06:45.984Z,44.17
2019-01-17T22:09:13.987Z,44.16
2019-01-17T22:11:41.972Z,44.09
2019-01-17T22:14:10.201Z,44.04
2019-01-17T22:16:37.912Z,44.00
2019-01-17T22:19:06.155Z,43.97
2019-01-17T22:21:34.447Z,43.94
2019-01-17T22:24:02.211Z,44.07
2019-01-17T22:26:30.227Z,44.19
2019-01-17T22:29:02.414Z,44.19
2019-01-17T22:31:27.425Z,44.10
2019-01-17T22:33:55.142Z,44.17
2019-01-17T22:36:22.910Z,44.19
2019-01-17T22:38:50.678Z,44.21
2019-01-17T22:41:18.738Z,44.19
2019-01-17T22:43:46.831Z,44.27
2019-01-17T22:46:14.574Z,44.32
2019-01-17T22:48:42.361Z,44.32
2019-01-17T22:51:10.425Z,44.34
2019-01-17T22:53:38.690Z,44.34
2019-01-17T22:56:06.450Z,44.35
2019-01-17T22:58:34.420Z,44.33
2019-01-17T23:01:11.238Z,44.29
2019-01-17T23:03:40.715Z,44.19
2019-01-17T23:06:08.687Z,44.31
2019-01-17T23:08:37.211Z,44.16
2019-01-17T23:11:04.934Z,44.25
2019-01-17T23:13:32.915Z,44.27
2019-01-17T23:16:00.884Z,44.23
2019-01-17T23:18:28.630Z,44.21
2019-01-17T23:20:57.206Z,44.27
2019-01-17T23:23:25.710Z,44.29
2019-01-17T23:25:53.705Z,44.29
2019-01-17T23:28:21.967Z,44.29
2019-01-17T23:30:49.976Z,44.29
2019-01-17T23:33:18.006Z,44.26
2019-01-17T23:35:46.374Z,44.28
2019-01-17T23:38:14.610Z,44.26
2019-01-17T23:40:42.815Z,44.23
2019-01-17T23:43:10.535Z,44.20
2019-01-17T23:45:38.255Z,44.20
2019-01-17T23:48:06.202Z,44.13
2019-01-17T23:50:34.194Z,44.21
2019-01-17T23:53:01.931Z,44.20
2019-01-17T23:55:29.675Z,44.19
2019-01-17T23:57:57.720Z,44.24
